createdAt,value
2023-11-12T00:00:18.014Z,5.73
2023-11-12T00:02:45.729Z,5.74
2023-11-12T00:05:13.510Z,5.71
2023-11-12T00:07:42.658Z,5.66
2023-11-12T00:10:13.276Z,5.69
2023-11-12T00:12:41.403Z,5.53
2023-11-12T00:15:09.977Z,5.56
2023-11-12T00:17:38.741Z,5.62
2023-11-12T00:20:08.065Z,5.73
2023-11-12T00:22:38.662Z,5.81
2023-11-12T00:25:09.656Z,5.82
2023-11-12T00:27:37.376Z,5.80
2023-11-12T00:30:06.543Z,5.72
2023-11-12T00:32:34.636Z,5.75
2023-11-12T00:35:02.494Z,5.76
2023-11-12T00:37:30.191Z,5.74
2023-11-12T00:39:57.903Z,5.72
2023-11-12T00:42:26.962Z,5.67
2023-11-12T00:44:55.032Z,5.66
2023-11-12T00:47:22.837Z,5.63
2023-11-12T00:49:50.732Z,5.63
2023-11-12T00:52:19.090Z,5.59
2023-11-12T00:54:48.309Z,5.59
2023-11-12T00:57:16.135Z,5.57
2023-11-12T00:59:45.180Z,5.53
2023-11-12T01:02:16.489Z,5.36
2023-11-12T01:04:44.436Z,5.44
2023-11-12T01:07:12.150Z,5.45
2023-11-12T01:09:39.940Z,5.40
2023-11-12T01:12:07.988Z,5.33
2023-11-12T01:14:35.753Z,5.10
2023-11-12T01:17:06.372Z,5.29
2023-11-12T01:19:34.241Z,5.29
2023-11-12T01:22:02.092Z,5.30
2023-11-12T01:24:30.343Z,5.19
2023-11-12T01:26:58.490Z,5.17
2023-11-12T01:29:26.789Z,5.13
2023-11-12T01:31:54.458Z,5.18
2023-11-12T01:34:24.716Z,5.13
2023-11-12T01:36:52.366Z,5.04
2023-11-12T01:39:20.280Z,5.10
2023-11-12T01:41:48.077Z,5.10
2023-11-12T01:44:15.798Z,5.06
2023-11-12T01:46:43.984Z,5.04
2023-11-12T01:49:12.198Z,5.02
2023-11-12T01:51:41.628Z,4.98
2023-11-12T01:54:09.765Z,4.99
2023-11-12T01:56:38.665Z,4.98
2023-11-12T01:59:07.832Z,4.93
2023-11-12T02:01:35.594Z,4.93
2023-11-12T02:04:04.351Z,4.88
2023-11-12T02:06:32.333Z,4.86
2023-11-12T02:09:02.859Z,4.83
2023-11-12T02:11:31.666Z,4.76
2023-11-12T02:14:00.499Z,4.74
2023-11-12T02:16:28.784Z,4.77
2023-11-12T02:18:56.750Z,4.71
2023-11-12T02:21:25.615Z,4.75
2023-11-12T02:23:54.698Z,4.65
2023-11-12T02:26:22.415Z,4.63
2023-11-12T02:28:50.179Z,4.52
2023-11-12T02:31:18.124Z,4.35
2023-11-12T02:33:45.897Z,4.43
2023-11-12T02:36:15.168Z,4.55
2023-11-12T02:38:42.887Z,4.57
2023-11-12T02:41:12.853Z,4.57
2023-11-12T02:43:41.410Z,4.50
2023-11-12T02:46:10.276Z,4.45
2023-11-12T02:48:56.775Z,4.47
2023-11-12T02:51:25.914Z,4.50
2023-11-12T02:53:55.391Z,4.51
2023-11-12T02:56:25.096Z,4.50
2023-11-12T02:58:52.861Z,4.50
2023-11-12T03:01:21.164Z,4.46
2023-11-12T03:03:49.037Z,4.45
2023-11-12T03:06:16.748Z,4.44
2023-11-12T03:08:45.002Z,4.44
2023-11-12T03:11:13.336Z,4.41
2023-11-12T03:13:42.460Z,4.43
2023-11-12T03:16:11.172Z,4.40
2023-11-12T03:18:39.065Z,4.36
2023-11-12T03:21:07.022Z,4.29
2023-11-12T03:23:34.707Z,4.25
2023-11-12T03:26:02.332Z,4.19
2023-11-12T03:28:30.070Z,4.24
2023-11-12T03:30:59.287Z,4.24
2023-11-12T03:33:29.014Z,4.23
2023-11-12T03:35:56.927Z,4.21
2023-11-12T03:38:25.162Z,4.21
2023-11-12T03:40:52.990Z,4.16
2023-11-12T03:43:21.109Z,4.16
2023-11-12T03:45:48.919Z,4.17
2023-11-12T03:48:18.068Z,4.20
2023-11-12T03:50:45.804Z,4.21
2023-11-12T03:53:13.491Z,4.22
2023-11-12T03:55:41.165Z,4.22
2023-11-12T03:58:08.894Z,4.25
2023-11-12T04:00:38.512Z,4.26
2023-11-12T04:03:07.053Z,4.28
2023-11-12T04:05:36.243Z,4.28
2023-11-12T04:08:03.940Z,4.32
2023-11-12T04:10:31.699Z,4.34
2023-11-12T04:13:00.496Z,4.32
2023-11-12T04:15:28.902Z,4.36
2023-11-12T04:17:56.647Z,4.38
2023-11-12T04:20:29.053Z,4.42
2023-11-12T04:22:58.218Z,4.40
2023-11-12T04:25:25.927Z,4.45
2023-11-12T04:27:53.688Z,4.50
2023-11-12T04:30:21.425Z,4.52
2023-11-12T04:32:49.233Z,4.54
2023-11-12T04:35:18.274Z,4.56
2023-11-12T04:37:46.635Z,4.57
2023-11-12T04:40:17.714Z,4.65
2023-11-12T04:42:45.862Z,4.66
2023-11-12T04:45:13.587Z,4.64
2023-11-12T04:47:41.456Z,4.66
2023-11-12T04:50:10.233Z,4.67
2023-11-12T04:52:37.885Z,4.72
2023-11-12T04:55:06.277Z,4.69
2023-11-12T04:57:35.420Z,4.68
2023-11-12T05:00:04.416Z,4.70
2023-11-12T05:02:32.102Z,4.68
2023-11-12T05:05:00.347Z,4.69
2023-11-12T05:07:28.021Z,4.65
2023-11-12T05:09:55.753Z,4.63
2023-11-12T05:12:23.581Z,4.58
2023-11-12T05:14:52.647Z,4.55
2023-11-12T05:17:23.140Z,4.51
2023-11-12T05:19:50.899Z,4.43
2023-11-12T05:22:18.906Z,4.45
2023-11-12T05:24:46.643Z,4.43
2023-11-12T05:27:14.473Z,4.41
2023-11-12T05:29:42.765Z,4.41
2023-11-12T05:32:11.879Z,4.38
2023-11-12T05:34:40.452Z,4.37
2023-11-12T05:37:09.124Z,4.35
2023-11-12T05:39:36.918Z,4.31
2023-11-12T05:42:04.930Z,4.35
2023-11-12T05:44:32.628Z,4.35
2023-11-12T05:47:00.729Z,4.30
2023-11-12T05:49:30.056Z,4.26
2023-11-12T05:51:57.899Z,4.23
2023-11-12T05:54:25.660Z,4.21
2023-11-12T05:56:53.407Z,4.19
2023-11-12T05:59:21.111Z,4.20
2023-11-12T06:01:49.077Z,4.16
2023-11-12T06:04:17.089Z,4.13
2023-11-12T06:06:46.211Z,4.11
2023-11-12T06:09:13.982Z,4.10
2023-11-12T06:11:41.763Z,4.05
2023-11-12T06:14:09.736Z,4.04
2023-11-12T06:16:37.537Z,4.00
2023-11-12T06:19:05.289Z,3.95
2023-11-12T06:21:33.141Z,3.97
2023-11-12T06:24:02.813Z,3.94
2023-11-12T06:26:30.501Z,3.95
2023-11-12T06:28:58.330Z,3.95
2023-11-12T06:31:26.026Z,3.92
2023-11-12T06:33:53.976Z,3.94
2023-11-12T06:36:21.781Z,3.91
2023-11-12T06:38:49.992Z,3.91
2023-11-12T06:41:19.881Z,3.91
2023-11-12T06:43:47.597Z,3.88
2023-11-12T06:46:15.282Z,3.87
2023-11-12T06:48:43.078Z,3.87
2023-11-12T06:51:10.799Z,3.85
2023-11-12T06:53:38.522Z,3.87
2023-11-12T06:56:07.237Z,3.90
2023-11-12T06:58:36.722Z,3.87
2023-11-12T07:01:04.625Z,3.89
2023-11-12T07:03:32.511Z,3.87
2023-11-12T07:06:00.673Z,3.87
2023-11-12T07:08:28.648Z,3.89
2023-11-12T07:10:56.301Z,3.87
2023-11-12T07:13:24.060Z,3.85
2023-11-12T07:15:53.139Z,3.84
2023-11-12T07:18:20.949Z,3.85
2023-11-12T07:20:48.707Z,3.84
2023-11-12T07:23:16.929Z,3.83
2023-11-12T07:25:44.750Z,3.81
2023-11-12T07:28:12.866Z,3.80
2023-11-12T07:30:40.736Z,3.81
2023-11-12T07:33:11.055Z,3.84
2023-11-12T07:35:38.815Z,3.82
2023-11-12T07:38:07.841Z,3.81
2023-11-12T07:40:35.580Z,3.82
2023-11-12T07:43:04.360Z,3.83
2023-11-12T07:45:38.221Z,3.83
2023-11-12T07:48:10.961Z,3.85
2023-11-12T07:50:39.302Z,3.83
2023-11-12T07:53:07.099Z,3.85
2023-11-12T07:55:34.796Z,3.87
2023-11-12T07:58:02.667Z,3.86
2023-11-12T08:00:30.368Z,3.86
2023-11-12T08:02:59.517Z,3.87
2023-11-12T08:05:28.600Z,3.87
2023-11-12T08:07:56.318Z,3.89
2023-11-12T08:10:24.026Z,3.93
2023-11-12T08:12:51.698Z,3.93
2023-11-12T08:15:19.517Z,3.93
2023-11-12T08:17:48.466Z,4.05
2023-11-12T08:20:16.697Z,4.02
2023-11-12T08:22:47.834Z,4.01
2023-11-12T08:25:15.709Z,4.02
2023-11-12T08:27:43.550Z,4.12
2023-11-12T08:30:12.005Z,4.10
2023-11-12T08:32:41.067Z,4.13
2023-11-12T08:35:09.541Z,4.28
2023-11-12T08:37:37.743Z,4.41
2023-11-12T08:40:08.803Z,4.48
2023-11-12T08:42:36.640Z,4.64
2023-11-12T08:45:05.607Z,4.56
2023-11-12T08:47:34.068Z,4.61
2023-11-12T08:50:01.800Z,4.42
2023-11-12T08:52:29.514Z,4.53
2023-11-12T08:54:57.298Z,4.65
2023-11-12T08:57:26.411Z,4.78
2023-11-12T08:59:54.729Z,5.07
2023-11-12T09:02:22.593Z,5.19
2023-11-12T09:04:50.275Z,5.03
2023-11-12T09:07:17.998Z,5.24
2023-11-12T09:09:45.752Z,5.39
2023-11-12T09:12:13.483Z,5.57
2023-11-12T09:14:42.545Z,5.62
2023-11-12T09:17:10.307Z,5.78
2023-11-12T09:19:38.006Z,5.81
2023-11-12T09:22:05.920Z,6.02
2023-11-12T09:24:33.689Z,6.03
2023-11-12T09:27:01.872Z,6.08
2023-11-12T09:29:29.982Z,6.27
2023-11-12T09:31:59.082Z,6.26
2023-11-12T09:34:28.006Z,6.45
2023-11-12T09:36:55.747Z,6.40
2023-11-12T09:39:24.804Z,6.49
2023-11-12T09:41:56.848Z,6.66
2023-11-12T09:44:28.782Z,6.73
2023-11-12T09:47:08.486Z,6.97
2023-11-12T09:49:36.296Z,7.00
2023-11-12T09:52:04.232Z,7.10
2023-11-12T09:54:32.704Z,7.18
2023-11-12T09:57:06.433Z,7.29
2023-11-12T09:59:37.611Z,7.35
2023-11-12T10:02:07.524Z,7.37
2023-11-12T10:04:35.446Z,7.53
2023-11-12T10:07:05.127Z,7.62
2023-11-12T10:09:33.311Z,7.72
2023-11-12T10:12:05.277Z,7.74
2023-11-12T10:14:32.971Z,7.71
2023-11-12T10:17:08.341Z,7.69
2023-11-12T10:19:36.610Z,7.59
2023-11-12T10:22:05.176Z,7.51
2023-11-12T10:24:42.966Z,7.52
2023-11-12T10:27:13.116Z,7.81
2023-11-12T10:29:42.092Z,7.94
2023-11-12T10:32:25.838Z,8.12
2023-11-12T10:34:53.889Z,8.04
2023-11-12T10:37:21.605Z,8.01
2023-11-12T10:39:50.823Z,8.04
2023-11-12T10:42:24.484Z,8.00
2023-11-12T10:44:55.978Z,8.17
2023-11-12T10:47:26.946Z,8.48
2023-11-12T10:49:55.924Z,8.65
2023-11-12T10:52:24.576Z,8.71
2023-11-12T10:54:53.137Z,8.94
2023-11-12T10:57:21.061Z,9.06
2023-11-12T10:59:50.852Z,9.05
2023-11-12T11:02:22.960Z,9.06
2023-11-12T11:04:53.553Z,9.19
2023-11-12T11:07:21.294Z,9.18
2023-11-12T11:09:50.036Z,9.09
2023-11-12T11:12:19.643Z,9.26
2023-11-12T11:14:48.265Z,9.39
2023-11-12T11:17:37.442Z,9.46
2023-11-12T11:20:07.828Z,9.59
2023-11-12T11:22:36.122Z,9.59
2023-11-12T11:25:23.898Z,9.59
2023-11-12T11:27:53.077Z,9.74
2023-11-12T11:30:21.030Z,9.73
2023-11-12T11:33:06.820Z,9.69
2023-11-12T11:35:36.856Z,9.62
2023-11-12T11:38:13.452Z,9.67
2023-11-12T11:40:43.563Z,9.80
2023-11-12T11:43:36.394Z,9.85
2023-11-12T11:46:12.220Z,9.89
2023-11-12T11:49:13.601Z,9.63
2023-11-12T11:51:52.812Z,9.46
2023-11-12T11:54:20.722Z,9.43
2023-11-12T11:56:48.595Z,9.29
2023-11-12T11:59:16.642Z,9.40
2023-11-12T12:01:45.820Z,9.33
2023-11-12T12:04:14.587Z,9.58
2023-11-12T12:06:44.206Z,9.63
2023-11-12T12:09:18.352Z,9.58
2023-11-12T12:11:47.311Z,9.44
2023-11-12T12:14:16.076Z,9.42
2023-11-12T12:16:46.598Z,9.43
2023-11-12T12:19:19.084Z,9.21
2023-11-12T12:21:49.085Z,9.14
2023-11-12T12:24:23.687Z,9.12
2023-11-12T12:26:52.059Z,9.12
2023-11-12T12:29:21.868Z,9.07
2023-11-12T12:31:50.550Z,8.97
2023-11-12T12:34:20.147Z,8.93
2023-11-12T12:36:58.295Z,8.85
2023-11-12T12:39:29.630Z,8.88
2023-11-12T12:41:59.603Z,8.85
2023-11-12T12:44:29.667Z,8.83
2023-11-12T12:46:57.399Z,8.79
2023-11-12T12:49:33.209Z,8.77
2023-11-12T12:52:02.001Z,8.82
2023-11-12T12:54:32.181Z,8.86
2023-11-12T12:57:05.073Z,8.91
2023-11-12T12:59:36.617Z,8.94
2023-11-12T13:02:04.699Z,9.01
2023-11-12T13:04:33.992Z,9.08
2023-11-12T13:07:07.711Z,9.11
2023-11-12T13:09:40.208Z,9.09
2023-11-12T13:12:13.327Z,9.14
2023-11-12T13:14:42.971Z,9.25
2023-11-12T13:17:10.723Z,9.21
2023-11-12T13:19:41.051Z,9.28
2023-11-12T13:22:09.296Z,9.30
2023-11-12T13:24:40.043Z,9.13
2023-11-12T13:27:09.094Z,9.10
2023-11-12T13:29:36.835Z,9.00
2023-11-12T13:32:08.476Z,8.89
2023-11-12T13:34:36.223Z,8.87
2023-11-12T13:37:04.136Z,8.93
2023-11-12T13:39:31.938Z,8.90
2023-11-12T13:42:03.219Z,8.90
2023-11-12T13:44:33.496Z,8.83
2023-11-12T13:47:01.229Z,8.81
2023-11-12T13:49:29.876Z,8.75
2023-11-12T13:51:58.077Z,8.77
2023-11-12T13:54:25.962Z,8.74
2023-11-12T13:56:53.643Z,8.80
2023-11-12T13:59:22.702Z,8.86
2023-11-12T14:01:51.514Z,8.82
2023-11-12T14:04:19.642Z,8.83
2023-11-12T14:06:48.254Z,8.86
2023-11-12T14:09:18.701Z,8.78
2023-11-12T14:11:47.666Z,8.73
2023-11-12T14:14:15.386Z,8.68
2023-11-12T14:16:44.886Z,8.67
2023-11-12T14:19:13.586Z,8.64
2023-11-12T14:21:43.384Z,8.62
2023-11-12T14:24:12.606Z,8.60
2023-11-12T14:26:40.669Z,8.60
2023-11-12T14:29:08.767Z,8.58
2023-11-12T14:31:36.693Z,8.47
2023-11-12T14:34:15.704Z,8.48
2023-11-12T14:36:44.210Z,8.47
2023-11-12T14:39:19.523Z,8.44
2023-11-12T14:41:47.450Z,8.50
2023-11-12T14:44:15.201Z,8.43
2023-11-12T14:46:43.925Z,8.35
2023-11-12T14:49:13.090Z,8.30
2023-11-12T14:51:42.124Z,8.25
2023-11-12T14:54:18.834Z,8.25
2023-11-12T14:56:47.652Z,8.19
2023-11-12T14:59:15.372Z,8.14
2023-11-12T15:01:47.373Z,8.09
2023-11-12T15:04:17.292Z,8.01
2023-11-12T15:06:45.213Z,7.95
2023-11-12T15:09:13.030Z,7.95
2023-11-12T15:11:41.750Z,7.92
2023-11-12T15:14:10.002Z,7.91
2023-11-12T15:16:38.661Z,7.84
2023-11-12T15:19:07.222Z,7.73
2023-11-12T15:21:43.099Z,7.63
2023-11-12T15:24:12.056Z,7.47
2023-11-12T15:26:40.941Z,7.52
2023-11-12T15:29:08.742Z,7.51
2023-11-12T15:31:36.990Z,7.47
2023-11-12T15:34:07.213Z,7.52
2023-11-12T15:36:38.120Z,7.35
2023-11-12T15:39:09.533Z,7.31
2023-11-12T15:41:37.336Z,7.31
2023-11-12T15:44:05.363Z,7.16
2023-11-12T15:46:33.726Z,7.23
2023-11-12T15:49:02.321Z,7.14
2023-11-12T15:51:30.312Z,7.27
2023-11-12T15:54:01.280Z,7.10
2023-11-12T15:56:29.070Z,7.13
2023-11-12T15:58:56.764Z,6.90
2023-11-12T16:01:24.759Z,6.74
2023-11-12T16:03:53.144Z,6.96
2023-11-12T16:06:20.970Z,6.78
2023-11-12T16:08:54.262Z,6.88
2023-11-12T16:11:29.144Z,6.77
2023-11-12T16:13:58.127Z,6.73
2023-11-12T16:16:27.328Z,6.71
2023-11-12T16:18:55.712Z,6.67
2023-11-12T16:21:23.576Z,6.62
2023-11-12T16:23:51.545Z,6.60
2023-11-12T16:26:20.497Z,6.70
2023-11-12T16:28:49.689Z,6.61
2023-11-12T16:31:17.876Z,6.58
2023-11-12T16:33:47.161Z,6.78
2023-11-12T16:36:14.924Z,6.73
2023-11-12T16:38:42.654Z,6.49
2023-11-12T16:41:10.465Z,6.38
2023-11-12T16:43:38.301Z,6.45
2023-11-12T16:46:07.655Z,6.41
2023-11-12T16:48:35.475Z,6.24
2023-11-12T16:51:04.528Z,6.25
2023-11-12T16:53:33.918Z,6.32
2023-11-12T16:56:03.422Z,6.40
2023-11-12T16:58:31.114Z,6.44
2023-11-12T17:00:59.154Z,6.49
2023-11-12T17:03:28.996Z,6.50
2023-11-12T17:05:56.862Z,6.51
2023-11-12T17:08:24.922Z,6.37
2023-11-12T17:10:53.596Z,6.17
2023-11-12T17:13:22.538Z,6.28
2023-11-12T17:15:50.677Z,6.29
2023-11-12T17:18:18.899Z,6.32
2023-11-12T17:20:48.991Z,6.26
2023-11-12T17:23:16.721Z,6.15
2023-11-12T17:25:44.444Z,6.29
2023-11-12T17:28:12.220Z,6.35
2023-11-12T17:30:41.024Z,6.33
2023-11-12T17:33:09.992Z,6.27
2023-11-12T17:35:39.936Z,6.14
2023-11-12T17:38:08.997Z,5.95
2023-11-12T17:40:37.553Z,6.03
2023-11-12T17:43:05.398Z,5.93
2023-11-12T17:45:33.167Z,5.85
2023-11-12T17:48:01.036Z,5.96
2023-11-12T17:50:28.758Z,5.90
2023-11-12T17:52:56.681Z,5.56
2023-11-12T17:55:25.676Z,5.72
2023-11-12T17:57:55.526Z,5.86
2023-11-12T18:00:24.019Z,5.96
2023-11-12T18:02:54.039Z,5.82
2023-11-12T18:05:21.942Z,5.89
2023-11-12T18:07:51.305Z,5.89
2023-11-12T18:10:20.415Z,5.74
2023-11-12T18:12:51.653Z,5.87
2023-11-12T18:15:20.455Z,5.89
2023-11-12T18:17:48.730Z,5.94
2023-11-12T18:20:18.682Z,5.91
2023-11-12T18:22:47.722Z,5.71
2023-11-12T18:25:16.677Z,5.84
2023-11-12T18:27:44.550Z,5.78
2023-11-12T18:30:16.561Z,5.86
2023-11-12T18:32:44.365Z,5.85
2023-11-12T18:35:12.204Z,5.70
2023-11-12T18:37:41.834Z,5.56
2023-11-12T18:40:15.833Z,5.73
2023-11-12T18:42:43.806Z,5.68
2023-11-12T18:45:16.770Z,5.76
2023-11-12T18:47:45.166Z,5.64
2023-11-12T18:50:13.700Z,5.72
2023-11-12T18:52:42.471Z,5.83
2023-11-12T18:55:14.984Z,5.85
2023-11-12T18:57:42.964Z,5.71
2023-11-12T19:00:11.956Z,5.65
2023-11-12T19:02:41.930Z,5.71
2023-11-12T19:05:10.353Z,5.63
2023-11-12T19:07:39.191Z,5.70
2023-11-12T19:10:11.047Z,5.66
2023-11-12T19:12:40.483Z,5.61
2023-11-12T19:15:09.402Z,5.70
2023-11-12T19:17:38.458Z,5.71
2023-11-12T19:20:09.263Z,5.79
2023-11-12T19:22:36.941Z,5.69
2023-11-12T19:25:04.788Z,5.57
2023-11-12T19:27:32.498Z,5.69
2023-11-12T19:30:08.639Z,5.67
2023-11-12T19:32:42.161Z,5.67
2023-11-12T19:35:12.446Z,5.61
2023-11-12T19:37:40.259Z,5.58
2023-11-12T19:40:09.680Z,5.71
2023-11-12T19:42:40.135Z,5.64
2023-11-12T19:45:08.636Z,5.65
2023-11-12T19:47:37.442Z,5.55
2023-11-12T19:50:07.856Z,5.68
2023-11-12T19:52:36.916Z,5.63
2023-11-12T19:55:05.746Z,5.71
2023-11-12T19:57:33.682Z,5.70
2023-11-12T20:00:01.403Z,5.68
2023-11-12T20:02:29.274Z,5.68
2023-11-12T20:04:57.103Z,5.67
2023-11-12T20:07:24.856Z,5.70
2023-11-12T20:09:56.416Z,5.72
2023-11-12T20:12:24.183Z,5.77
2023-11-12T20:14:51.901Z,5.78
2023-11-12T20:17:19.585Z,5.67
2023-11-12T20:19:47.386Z,5.73
2023-11-12T20:22:18.712Z,5.73
2023-11-12T20:24:51.106Z,5.74
2023-11-12T20:27:21.095Z,5.68
2023-11-12T20:29:51.017Z,5.71
2023-11-12T20:32:18.978Z,5.77
2023-11-12T20:34:51.274Z,5.60
2023-11-12T20:37:20.163Z,5.61
2023-11-12T20:39:48.141Z,5.61
2023-11-12T20:42:15.905Z,5.54
2023-11-12T20:44:45.330Z,5.43
2023-11-12T20:47:13.879Z,5.42
2023-11-12T20:49:41.908Z,5.45
2023-11-12T20:52:09.887Z,5.43
2023-11-12T20:54:39.319Z,5.43
2023-11-12T20:57:10.149Z,5.42
2023-11-12T20:59:37.871Z,5.37
2023-11-12T21:02:14.633Z,5.35
2023-11-12T21:04:51.439Z,5.32
2023-11-12T21:07:19.764Z,5.35
2023-11-12T21:09:50.346Z,5.42
2023-11-12T21:12:18.724Z,5.34
2023-11-12T21:14:48.400Z,5.27
2023-11-12T21:17:17.712Z,5.42
2023-11-12T21:19:50.600Z,5.33
2023-11-12T21:22:18.421Z,5.41
2023-11-12T21:24:46.087Z,5.32
2023-11-12T21:27:14.096Z,5.34
2023-11-12T21:29:41.925Z,5.43
2023-11-12T21:32:10.565Z,5.33
2023-11-12T21:34:39.774Z,5.26
2023-11-12T21:37:07.895Z,5.24
2023-11-12T21:39:36.895Z,5.30
2023-11-12T21:42:06.374Z,5.36
2023-11-12T21:44:34.154Z,5.45
2023-11-12T21:47:03.632Z,5.52
2023-11-12T21:49:31.545Z,5.42
2023-11-12T21:52:01.211Z,5.41
2023-11-12T21:54:29.028Z,5.53
2023-11-12T21:56:56.873Z,5.41
2023-11-12T21:59:27.345Z,5.26
2023-11-12T22:01:55.077Z,5.38
2023-11-12T22:04:26.031Z,5.39
2023-11-12T22:06:53.959Z,5.47
2023-11-12T22:09:23.939Z,5.46
2023-11-12T22:11:52.235Z,5.36
2023-11-12T22:14:20.364Z,5.43
2023-11-12T22:16:48.124Z,5.38
2023-11-12T22:19:15.999Z,5.31
2023-11-12T22:21:46.549Z,5.30
2023-11-12T22:24:15.418Z,5.41
2023-11-12T22:26:44.527Z,5.36
2023-11-12T22:29:12.569Z,5.43
2023-11-12T22:31:40.342Z,5.41
2023-11-12T22:34:08.087Z,5.42
2023-11-12T22:36:35.767Z,5.39
2023-11-12T22:39:06.047Z,5.41
2023-11-12T22:41:33.763Z,5.43
2023-11-12T22:44:02.821Z,5.43
2023-11-12T22:46:29.665Z,5.49
2023-11-12T22:48:57.559Z,5.48
2023-11-12T22:51:25.655Z,5.46
2023-11-12T22:53:53.344Z,5.51
2023-11-12T22:56:21.062Z,5.54
2023-11-12T22:58:51.207Z,5.54
2023-11-12T23:01:21.447Z,5.55
2023-11-12T23:03:49.540Z,5.50
2023-11-12T23:06:18.175Z,5.51
2023-11-12T23:08:47.301Z,5.49
2023-11-12T23:11:15.082Z,5.46
2023-11-12T23:13:43.438Z,5.51
2023-11-12T23:16:12.119Z,5.49
2023-11-12T23:18:41.367Z,5.49
2023-11-12T23:21:10.276Z,5.52
2023-11-12T23:23:38.268Z,5.48
2023-11-12T23:26:06.288Z,5.50
2023-11-12T23:28:36.275Z,5.55
2023-11-12T23:31:04.192Z,5.58
2023-11-12T23:33:32.199Z,5.52
2023-11-12T23:36:01.304Z,5.51
2023-11-12T23:38:29.024Z,5.58
2023-11-12T23:40:57.361Z,5.58
2023-11-12T23:43:25.897Z,5.57
2023-11-12T23:45:53.645Z,5.49
2023-11-12T23:48:21.410Z,5.57
2023-11-12T23:50:49.188Z,5.54
2023-11-12T23:53:18.187Z,5.58
2023-11-12T23:55:45.905Z,5.56
2023-11-12T23:58:13.625Z,5.55
